Terminal Aerodrome Forecast
Issued by NWS

Current Version | Previous Version | Text Only | Print | Product List | Glossary On
Versions: 1 2 3 4 5 6 7 8 9 10 11 12
506
FTAK31 PAJN 081724
TAFAPG
TAF
PAPG 081724Z 0818/0918 VRB05KT P6SM BKN080
     FM082000 10008KT P6SM SCT080
     FM090400 00000KT P6SM SKC
      AMD LTD TO CLD VIS AND WIND 0906/0915=

USA.gov is the U.S. government's official web portal to all federal, state and local government web resources and services.